createdAt,value
2023-02-19T00:01:11.181Z,94.3
2023-02-19T00:02:27.470Z,94.3
2023-02-19T00:03:43.772Z,94.3
2023-02-19T00:05:00.065Z,94.5
2023-02-19T00:06:16.351Z,94.4
2023-02-19T00:07:32.636Z,94.7
2023-02-19T00:08:47.950Z,94.8
2023-02-19T00:10:04.248Z,94.7
2023-02-19T00:11:20.000Z,94.9
2023-02-19T00:12:36.837Z,95.1
2023-02-19T00:13:53.128Z,95.2
2023-02-19T00:15:09.418Z,95.2
2023-02-19T00:16:25.722Z,95.2
2023-02-19T00:17:42.013Z,95.2
2023-02-19T00:18:58.309Z,95.2
2023-02-19T00:20:14.599Z,95.3
2023-02-19T00:21:30.896Z,95.4
2023-02-19T00:22:47.192Z,95.5
2023-02-19T00:24:03.484Z,95.4
2023-02-19T00:25:18.787Z,95.4
2023-02-19T00:26:35.084Z,95.4
2023-02-19T00:27:51.374Z,95.4
2023-02-19T00:29:07.686Z,95.5
2023-02-19T00:30:23.976Z,95.3
2023-02-19T00:31:40.261Z,95.3
2023-02-19T00:32:56.564Z,95.3
2023-02-19T00:34:12.859Z,95.2
2023-02-19T00:35:29.139Z,95.1
2023-02-19T00:36:45.453Z,95.2
2023-02-19T00:38:01.749Z,95.2
2023-02-19T00:39:18.024Z,95.1
2023-02-19T00:40:34.334Z,95
2023-02-19T00:41:50.734Z,95
2023-02-19T00:43:07.037Z,95.1
2023-02-19T00:44:23.332Z,94.9
2023-02-19T00:45:39.630Z,95
2023-02-19T00:46:55.908Z,94.9
2023-02-19T00:48:12.217Z,94.9
2023-02-19T00:49:28.511Z,94.9
2023-02-19T00:50:44.808Z,94.9
2023-02-19T00:52:01.101Z,95.2
2023-02-19T00:53:17.379Z,95.3
2023-02-19T00:54:33.682Z,95.5
2023-02-19T00:55:49.965Z,95.7
2023-02-19T00:57:06.259Z,95.9
2023-02-19T00:58:21.570Z,96.3
2023-02-19T00:59:37.875Z,96.5
2023-02-19T01:00:54.181Z,96.7
2023-02-19T01:02:10.476Z,97
2023-02-19T01:04:43.059Z,97.6
2023-02-19T01:05:59.356Z,97.8
2023-02-19T01:07:15.641Z,97.9
2023-02-19T01:08:31.942Z,98.3
2023-02-19T01:09:48.226Z,98.4
2023-02-19T01:11:04.525Z,98.4
2023-02-19T01:12:20.814Z,98.8
2023-02-19T01:13:37.109Z,99.1
2023-02-19T01:14:52.424Z,99.2
2023-02-19T01:16:08.720Z,99.3
2023-02-19T01:17:25.016Z,99.5
2023-02-19T01:18:41.305Z,99.6
2023-02-19T01:19:57.599Z,99.9
2023-02-19T01:21:13.883Z,100
2023-02-19T01:22:30.176Z,100
2023-02-19T01:23:46.490Z,100
2023-02-19T01:25:02.000Z,100
2023-02-19T01:26:19.068Z,100
2023-02-19T01:27:35.358Z,100
2023-02-19T01:28:51.649Z,100
2023-02-19T01:30:07.960Z,100
2023-02-19T01:31:23.271Z,100
2023-02-19T01:32:39.566Z,100
2023-02-19T01:33:55.849Z,100
2023-02-19T01:35:12.136Z,100
2023-02-19T01:36:28.450Z,100
2023-02-19T01:37:44.750Z,100
2023-02-19T01:39:01.037Z,100
2023-02-19T01:40:17.321Z,100
2023-02-19T01:41:33.617Z,100
2023-02-19T01:42:49.902Z,100
2023-02-19T01:44:06.211Z,100
2023-02-19T01:45:22.488Z,100
2023-02-19T01:46:38.796Z,100
2023-02-19T01:47:54.119Z,100
2023-02-19T01:49:10.388Z,100
2023-02-19T01:50:26.705Z,100
2023-02-19T01:51:42.974Z,100
2023-02-19T01:52:59.266Z,100
2023-02-19T01:54:15.574Z,100
2023-02-19T01:55:31.881Z,100
2023-02-19T01:56:48.167Z,100
2023-02-19T01:58:04.469Z,100
2023-02-19T01:59:20.750Z,100
2023-02-19T02:00:37.039Z,100
2023-02-19T02:01:53.340Z,100
2023-02-19T02:03:09.631Z,100
2023-02-19T02:04:24.945Z,100
2023-02-19T02:05:41.236Z,100
2023-02-19T02:06:57.523Z,100
2023-02-19T02:08:13.813Z,100
2023-02-19T02:09:30.113Z,100
2023-02-19T02:10:46.408Z,100
2023-02-19T02:12:01.723Z,100
2023-02-19T02:13:18.026Z,100
2023-02-19T02:14:34.320Z,100
2023-02-19T02:15:50.614Z,100
2023-02-19T02:17:06.905Z,100
2023-02-19T02:18:23.191Z,100
2023-02-19T02:19:39.484Z,100
2023-02-19T02:20:55.790Z,100
2023-02-19T02:22:12.073Z,100
2023-02-19T02:23:28.380Z,100
2023-02-19T02:24:44.660Z,100
2023-02-19T02:26:00.965Z,100
2023-02-19T02:27:17.255Z,100
2023-02-19T02:28:32.567Z,100
2023-02-19T02:29:48.855Z,100
2023-02-19T02:31:05.163Z,100
2023-02-19T02:32:21.456Z,100
2023-02-19T02:33:37.760Z,100
2023-02-19T02:34:54.037Z,100
2023-02-19T02:36:10.323Z,100
2023-02-19T02:37:26.614Z,100
2023-02-19T02:38:42.929Z,100
2023-02-19T02:39:59.222Z,100
2023-02-19T02:41:15.515Z,100
2023-02-19T02:42:31.809Z,100
2023-02-19T02:43:48.085Z,100
2023-02-19T02:45:03.399Z,100
2023-02-19T02:46:19.703Z,100
2023-02-19T02:47:35.987Z,100
2023-02-19T02:48:52.291Z,100
2023-02-19T02:50:08.577Z,100
2023-02-19T02:51:24.871Z,100
2023-02-19T02:52:41.178Z,100
2023-02-19T02:53:57.481Z,100
2023-02-19T02:55:13.779Z,100
2023-02-19T02:56:30.052Z,100
2023-02-19T02:57:46.337Z,100
2023-02-19T02:59:02.646Z,100
2023-02-19T03:00:18.940Z,100
2023-02-19T03:01:34.236Z,100
2023-02-19T03:02:50.542Z,100
2023-02-19T03:04:06.851Z,100
2023-02-19T03:05:23.128Z,100
2023-02-19T03:06:39.431Z,100
2023-02-19T03:07:55.706Z,100
2023-02-19T03:09:12.027Z,100
2023-02-19T03:10:28.297Z,100
2023-02-19T03:11:44.589Z,100
2023-02-19T03:13:00.883Z,100
2023-02-19T03:14:17.194Z,100
2023-02-19T03:15:33.481Z,100
2023-02-19T03:16:49.782Z,100
2023-02-19T03:18:05.095Z,100
2023-02-19T03:19:21.381Z,100
2023-02-19T03:20:37.671Z,100
2023-02-19T03:21:53.983Z,100
2023-02-19T03:23:10.252Z,100
2023-02-19T03:24:26.560Z,100
2023-02-19T03:25:42.854Z,100
2023-02-19T03:26:59.137Z,100
2023-02-19T03:28:15.427Z,100
2023-02-19T03:29:31.748Z,100
2023-02-19T03:30:48.022Z,100
2023-02-19T03:32:04.322Z,100
2023-02-19T03:33:20.624Z,100
2023-02-19T03:34:35.936Z,100
2023-02-19T03:35:52.000Z,100
2023-02-19T03:37:08.518Z,100
2023-02-19T03:38:24.814Z,100
2023-02-19T03:39:41.108Z,100
2023-02-19T03:40:57.392Z,100
2023-02-19T03:42:13.681Z,100
2023-02-19T03:43:29.986Z,100
2023-02-19T03:44:46.270Z,100
2023-02-19T03:46:02.572Z,100
2023-02-19T03:47:18.878Z,100
2023-02-19T03:48:35.170Z,100
2023-02-19T03:49:51.447Z,100
2023-02-19T03:51:06.764Z,100
2023-02-19T03:52:23.060Z,100
2023-02-19T03:53:39.364Z,100
2023-02-19T03:54:55.651Z,100
2023-02-19T03:56:11.938Z,100
2023-02-19T03:57:28.240Z,100
2023-02-19T03:58:44.528Z,100
2023-02-19T04:00:00.838Z,100
2023-02-19T04:01:17.123Z,100
2023-02-19T04:02:33.405Z,100
2023-02-19T04:03:49.697Z,100
2023-02-19T04:05:06.017Z,100
2023-02-19T04:06:22.285Z,100
2023-02-19T04:07:37.608Z,100
2023-02-19T04:08:53.888Z,100
2023-02-19T04:10:10.200Z,100
2023-02-19T04:11:26.489Z,100
2023-02-19T04:12:42.786Z,100
2023-02-19T04:13:59.074Z,100
2023-02-19T04:15:15.370Z,100
2023-02-19T04:16:31.667Z,100
2023-02-19T04:17:47.963Z,100
2023-02-19T04:19:04.239Z,100
2023-02-19T04:20:20.533Z,100
2023-02-19T04:21:36.841Z,100
2023-02-19T04:22:53.140Z,100
2023-02-19T04:24:08.450Z,100
2023-02-19T04:25:24.730Z,100
2023-02-19T04:26:41.036Z,100
2023-02-19T04:27:57.328Z,100
2023-02-19T04:29:13.611Z,100
2023-02-19T04:30:29.918Z,100
2023-02-19T04:31:46.201Z,100
2023-02-19T04:33:02.508Z,100
2023-02-19T04:34:18.812Z,100
2023-02-19T04:35:35.084Z,100
2023-02-19T04:36:51.377Z,100
2023-02-19T04:38:07.677Z,100
2023-02-19T04:39:23.962Z,100
2023-02-19T04:40:39.280Z,100
2023-02-19T04:41:55.585Z,100
2023-02-19T04:43:11.885Z,100
2023-02-19T04:44:28.166Z,100
2023-02-19T04:45:44.458Z,100
2023-02-19T04:47:00.755Z,100
2023-02-19T04:48:17.053Z,100
2023-02-19T04:49:33.333Z,100
2023-02-19T04:50:49.635Z,100
2023-02-19T04:52:05.923Z,100
2023-02-19T04:53:22.246Z,100
2023-02-19T04:54:38.537Z,100
2023-02-19T04:55:54.820Z,100
2023-02-19T04:57:10.130Z,100
2023-02-19T04:58:26.410Z,100
2023-02-19T04:59:42.705Z,100
2023-02-19T05:00:59.012Z,100
2023-02-19T05:02:15.289Z,100
2023-02-19T05:03:31.608Z,100
2023-02-19T05:04:47.891Z,100
2023-02-19T05:06:04.188Z,100
2023-02-19T05:07:20.479Z,100
2023-02-19T05:08:36.785Z,100
2023-02-19T05:09:53.072Z,100
2023-02-19T05:11:09.349Z,100
2023-02-19T05:12:25.648Z,100
2023-02-19T05:13:40.956Z,100
2023-02-19T05:14:57.254Z,100
2023-02-19T05:16:13.571Z,100
2023-02-19T05:17:29.853Z,100
2023-02-19T05:18:46.157Z,100
2023-02-19T05:20:02.000Z,100
2023-02-19T05:21:18.735Z,100
2023-02-19T05:22:35.013Z,100
2023-02-19T05:23:51.325Z,100
2023-02-19T05:25:07.611Z,100
2023-02-19T05:26:23.894Z,100
2023-02-19T05:27:40.204Z,100
2023-02-19T05:28:56.499Z,100
2023-02-19T05:30:11.792Z,100
2023-02-19T05:31:28.097Z,100
2023-02-19T05:32:44.394Z,100
2023-02-19T05:34:00.681Z,100
2023-02-19T05:35:16.977Z,100
2023-02-19T05:36:33.268Z,100
2023-02-19T05:37:49.573Z,100
2023-02-19T05:39:05.851Z,100
2023-02-19T05:40:22.163Z,100
2023-02-19T05:41:38.447Z,100
2023-02-19T05:42:54.750Z,100
2023-02-19T05:44:11.049Z,100
2023-02-19T05:45:27.327Z,100
2023-02-19T05:46:42.665Z,100
2023-02-19T05:47:58.944Z,100
2023-02-19T05:49:15.227Z,100
2023-02-19T05:50:31.522Z,100
2023-02-19T05:51:47.833Z,100
2023-02-19T05:53:04.109Z,100
2023-02-19T05:54:20.352Z,100
2023-02-19T05:55:36.602Z,100
2023-02-19T05:56:52.860Z,100
2023-02-19T05:58:09.091Z,100
2023-02-19T05:59:25.329Z,100
2023-02-19T06:00:41.584Z,100
2023-02-19T06:01:57.822Z,100
2023-02-19T06:03:13.081Z,100
2023-02-19T06:04:29.319Z,100
2023-02-19T06:05:45.546Z,100
2023-02-19T06:07:01.801Z,100
2023-02-19T06:08:18.031Z,100
2023-02-19T06:09:34.279Z,100
2023-02-19T06:10:50.536Z,100
2023-02-19T06:12:06.765Z,100
2023-02-19T06:13:22.999Z,100
2023-02-19T06:14:39.243Z,100
2023-02-19T06:15:55.469Z,100
2023-02-19T06:17:11.720Z,100
2023-02-19T06:18:27.964Z,100
2023-02-19T06:19:43.225Z,100
2023-02-19T06:20:59.460Z,100
2023-02-19T06:22:15.708Z,100
2023-02-19T06:23:31.944Z,100
2023-02-19T06:24:48.165Z,100
2023-02-19T06:26:04.407Z,100
2023-02-19T06:27:19.666Z,100
2023-02-19T06:28:35.915Z,100
2023-02-19T06:29:52.153Z,100
2023-02-19T06:31:08.410Z,100
2023-02-19T06:32:24.631Z,100
2023-02-19T06:33:40.865Z,100
2023-02-19T06:34:57.110Z,100
2023-02-19T06:36:13.359Z,100
2023-02-19T06:37:29.591Z,100
2023-02-19T06:38:45.832Z,100
2023-02-19T06:40:02.065Z,100
2023-02-19T06:41:18.308Z,100
2023-02-19T06:42:34.574Z,100
2023-02-19T06:43:49.817Z,100
2023-02-19T06:45:06.048Z,100
2023-02-19T06:46:22.298Z,100
2023-02-19T06:47:38.541Z,100
2023-02-19T06:48:54.763Z,100
2023-02-19T06:50:11.001Z,100
2023-02-19T06:51:27.263Z,100
2023-02-19T06:52:43.503Z,100
2023-02-19T06:53:59.738Z,100
2023-02-19T06:55:15.988Z,100
2023-02-19T06:56:32.214Z,100
2023-02-19T06:57:48.442Z,100
2023-02-19T06:59:04.703Z,100
2023-02-19T07:00:19.943Z,100
2023-02-19T07:01:36.184Z,100
2023-02-19T07:02:52.441Z,100
2023-02-19T07:04:08.674Z,99.8
2023-02-19T07:05:24.904Z,99.6
2023-02-19T07:06:41.156Z,99.3
2023-02-19T07:07:57.404Z,98.9
2023-02-19T07:09:13.639Z,99
2023-02-19T07:10:29.876Z,99
2023-02-19T07:11:46.103Z,99.2
2023-02-19T07:13:02.354Z,99.4
2023-02-19T07:14:18.591Z,99.5
2023-02-19T07:15:34.838Z,99.7
2023-02-19T07:16:50.080Z,99.8
2023-02-19T07:18:06.334Z,99.7
2023-02-19T07:19:22.579Z,99.9
2023-02-19T07:20:38.816Z,100
2023-02-19T07:21:55.054Z,99.8
2023-02-19T07:23:11.279Z,99.6
2023-02-19T07:24:27.520Z,99.7
2023-02-19T07:25:43.760Z,99.9
2023-02-19T07:27:00.030Z,99.9
2023-02-19T07:28:16.238Z,99.8
2023-02-19T07:29:32.493Z,99.8
2023-02-19T07:30:48.722Z,99.9
2023-02-19T07:32:04.964Z,100
2023-02-19T07:33:20.227Z,99.8
2023-02-19T07:34:36.456Z,99.7
2023-02-19T07:35:52.702Z,99.6
2023-02-19T07:37:08.940Z,99.7
2023-02-19T07:38:25.200Z,99.6
2023-02-19T07:39:41.421Z,99.7
2023-02-19T07:40:57.662Z,99.3
2023-02-19T07:42:13.919Z,99.4
2023-02-19T07:43:30.157Z,99.5
2023-02-19T07:44:46.387Z,99.7
2023-02-19T07:46:02.642Z,100
2023-02-19T07:47:18.862Z,100
2023-02-19T07:48:35.117Z,99.8
2023-02-19T07:49:50.355Z,99.8
2023-02-19T07:51:06.618Z,99.8
2023-02-19T07:52:22.852Z,99.4
2023-02-19T07:53:39.096Z,99.4
2023-02-19T07:54:55.323Z,99.3
2023-02-19T07:56:11.569Z,99.4
2023-02-19T07:57:27.812Z,99.6
2023-02-19T07:58:44.053Z,99.8
2023-02-19T08:00:00.296Z,99.7
2023-02-19T08:01:16.535Z,99.8
2023-02-19T08:02:32.765Z,99.9
2023-02-19T08:03:49.030Z,100
2023-02-19T08:05:05.239Z,100
2023-02-19T08:06:20.520Z,100
2023-02-19T08:07:36.742Z,100
2023-02-19T08:08:52.981Z,100
2023-02-19T08:10:09.229Z,100
2023-02-19T08:11:25.465Z,100
2023-02-19T08:12:41.711Z,100
2023-02-19T08:13:57.955Z,100
2023-02-19T08:15:14.206Z,100
2023-02-19T08:16:30.432Z,100
2023-02-19T08:17:46.661Z,100
2023-02-19T08:19:02.930Z,100
2023-02-19T08:20:19.154Z,100
2023-02-19T08:21:35.402Z,100
2023-02-19T08:22:50.653Z,100
2023-02-19T08:24:06.879Z,100
2023-02-19T08:25:23.117Z,100
2023-02-19T08:26:39.375Z,100
2023-02-19T08:27:55.597Z,100
2023-02-19T08:29:11.865Z,100
2023-02-19T08:30:28.112Z,100
2023-02-19T08:31:44.342Z,100
2023-02-19T08:33:00.589Z,100
2023-02-19T08:34:16.798Z,100
2023-02-19T08:35:33.046Z,100
2023-02-19T08:36:49.284Z,99.9
2023-02-19T08:38:05.543Z,99.7
2023-02-19T08:39:20.805Z,99.8
2023-02-19T08:40:37.017Z,99.9
2023-02-19T08:41:53.279Z,99.7
2023-02-19T08:43:09.497Z,99.5
2023-02-19T08:44:25.749Z,99.7
2023-02-19T08:45:41.999Z,99.6
2023-02-19T08:46:58.219Z,99.6
2023-02-19T08:48:14.479Z,99.5
2023-02-19T08:49:30.714Z,99.4
2023-02-19T08:50:46.942Z,99
2023-02-19T08:52:03.199Z,98
2023-02-19T08:53:19.436Z,97.6
2023-02-19T08:54:35.661Z,97.6
2023-02-19T08:57:07.164Z,97
2023-02-19T08:58:23.396Z,96.7
2023-02-19T08:59:39.662Z,97
2023-02-19T09:00:55.880Z,96.7
2023-02-19T09:02:12.139Z,96.6
2023-02-19T09:03:28.361Z,96.7
2023-02-19T09:04:44.605Z,97
2023-02-19T09:06:00.838Z,97.2
2023-02-19T09:07:17.095Z,96.7
2023-02-19T09:08:33.327Z,97
2023-02-19T09:09:49.570Z,96.6
2023-02-19T09:11:05.799Z,96.5
2023-02-19T09:12:21.071Z,95.8
2023-02-19T09:13:37.306Z,96
2023-02-19T09:14:53.564Z,96
2023-02-19T09:16:09.781Z,95.7
2023-02-19T09:17:26.035Z,95.9
2023-02-19T09:18:42.272Z,96.2
2023-02-19T09:19:58.520Z,96.3
2023-02-19T09:21:14.744Z,95.9
2023-02-19T09:22:30.994Z,96.3
2023-02-19T09:23:47.220Z,96.6
2023-02-19T09:25:03.467Z,96.3
2023-02-19T09:26:19.698Z,95.8
2023-02-19T09:27:35.942Z,95.3
2023-02-19T09:28:51.195Z,94.4
2023-02-19T09:30:07.453Z,93.7
2023-02-19T09:31:23.682Z,94.2
2023-02-19T09:32:39.947Z,94.1
2023-02-19T09:33:56.176Z,93.5
2023-02-19T09:35:12.413Z,93.3
2023-02-19T09:36:28.637Z,92.7
2023-02-19T09:37:44.892Z,93.9
2023-02-19T09:39:01.131Z,93.5
2023-02-19T09:40:17.371Z,92.5
2023-02-19T09:41:33.617Z,92.7
2023-02-19T09:42:49.843Z,92
2023-02-19T09:44:06.090Z,91.2
2023-02-19T09:45:21.342Z,91.4
2023-02-19T09:46:37.585Z,91.9
2023-02-19T09:47:53.816Z,90.7
2023-02-19T09:49:10.075Z,90.7
2023-02-19T09:50:26.312Z,90.5
2023-02-19T09:51:42.539Z,91.2
2023-02-19T09:52:58.804Z,89.8
2023-02-19T09:54:15.019Z,89.8
2023-02-19T09:55:31.286Z,90.6
2023-02-19T09:56:47.508Z,90.5
2023-02-19T09:58:03.737Z,90
2023-02-19T09:59:19.995Z,89.6
2023-02-19T10:00:36.254Z,89
2023-02-19T10:01:51.480Z,85.8
2023-02-19T10:03:07.714Z,84
2023-02-19T10:04:23.971Z,82.7
2023-02-19T10:05:40.195Z,79.8
2023-02-19T10:06:56.450Z,77.3
2023-02-19T10:08:12.678Z,76.6
2023-02-19T10:09:28.918Z,74.9
2023-02-19T10:10:45.174Z,76.3
2023-02-19T10:12:01.407Z,76.1
2023-02-19T10:13:17.654Z,75.8
2023-02-19T10:14:33.901Z,73.1
2023-02-19T10:15:50.138Z,73.4
2023-02-19T10:17:06.382Z,76.5
2023-02-19T10:18:21.613Z,78.5
2023-02-19T10:19:37.872Z,79.7
2023-02-19T10:20:54.094Z,80.9
2023-02-19T10:22:10.356Z,80.6
2023-02-19T10:23:26.592Z,82.3
2023-02-19T10:24:42.822Z,82.7
2023-02-19T10:25:59.063Z,83.1
2023-02-19T10:27:15.295Z,83.5
2023-02-19T10:28:31.565Z,83.9
2023-02-19T10:29:47.782Z,84.8
2023-02-19T10:31:04.042Z,85.9
2023-02-19T10:32:20.255Z,83.2
2023-02-19T10:33:36.497Z,82.3
2023-02-19T10:34:51.762Z,83.1
2023-02-19T10:36:07.983Z,82.4
2023-02-19T10:37:24.224Z,82.5
2023-02-19T10:38:40.497Z,82.7
2023-02-19T10:39:56.708Z,82.4
2023-02-19T10:41:12.951Z,81.1
2023-02-19T10:42:28.216Z,81.8
2023-02-19T10:43:44.467Z,82.8
2023-02-19T10:45:00.714Z,82.3
2023-02-19T10:46:16.931Z,84.1
2023-02-19T10:47:33.200Z,84.9
2023-02-19T10:48:49.404Z,84.7
2023-02-19T10:50:05.648Z,86
2023-02-19T10:51:21.889Z,85.9
2023-02-19T10:52:38.163Z,85
2023-02-19T10:53:54.386Z,85.6
2023-02-19T10:55:10.608Z,84.5
2023-02-19T10:56:26.853Z,83.4
2023-02-19T10:57:43.102Z,84
2023-02-19T10:58:58.364Z,84.4
2023-02-19T11:00:14.590Z,82.9
2023-02-19T11:01:30.845Z,81.7
2023-02-19T11:02:47.067Z,82
2023-02-19T11:04:03.300Z,80
2023-02-19T11:05:19.535Z,81.6
2023-02-19T11:06:35.780Z,82.4
2023-02-19T11:07:52.025Z,82.4
2023-02-19T11:09:08.268Z,82.5
2023-02-19T11:10:24.514Z,81.1
2023-02-19T11:11:40.741Z,80.4
2023-02-19T11:12:56.987Z,79.1
2023-02-19T11:14:13.213Z,80.7
2023-02-19T11:15:28.483Z,81.3
2023-02-19T11:16:44.732Z,81
2023-02-19T11:18:00.959Z,80.9
2023-02-19T11:19:17.194Z,81.4
2023-02-19T11:20:33.453Z,81.1
2023-02-19T11:21:49.687Z,81
2023-02-19T11:23:05.911Z,81.6
2023-02-19T11:24:22.162Z,83
2023-02-19T11:25:38.405Z,81.4
2023-02-19T11:26:54.635Z,81.2
2023-02-19T11:28:10.889Z,80.4
2023-02-19T11:29:27.122Z,79.7
2023-02-19T11:30:43.361Z,78.8
2023-02-19T11:31:58.620Z,80.5
2023-02-19T11:33:14.871Z,80.1
2023-02-19T11:34:31.093Z,79.8
2023-02-19T11:35:47.343Z,79.6
2023-02-19T11:37:03.586Z,80
2023-02-19T11:38:19.816Z,80.5
2023-02-19T11:39:36.062Z,80.6
2023-02-19T11:40:52.311Z,78.9
2023-02-19T11:42:08.546Z,76.7
2023-02-19T11:43:24.787Z,77.2
2023-02-19T11:44:41.028Z,77.9
2023-02-19T11:45:57.267Z,78
2023-02-19T11:47:13.504Z,78
2023-02-19T11:48:28.760Z,77.5
2023-02-19T11:49:45.002Z,78.2
2023-02-19T11:51:01.237Z,78.3
2023-02-19T11:52:17.465Z,78.5
2023-02-19T11:53:33.729Z,80.3
2023-02-19T11:54:49.947Z,78.5
2023-02-19T11:56:06.207Z,77.5
2023-02-19T11:57:22.424Z,76.1
2023-02-19T11:58:38.692Z,77.2
2023-02-19T11:59:54.904Z,78.3
2023-02-19T12:01:11.167Z,78.7
2023-02-19T12:02:27.411Z,78.6
2023-02-19T12:03:43.650Z,79.2
2023-02-19T12:04:58.893Z,79.1
2023-02-19T12:06:15.136Z,78.9
2023-02-19T12:07:31.380Z,79.2
2023-02-19T12:08:47.607Z,79.8
2023-02-19T12:10:03.859Z,78.7
2023-02-19T12:11:20.105Z,77.7
2023-02-19T12:12:36.322Z,79.5
2023-02-19T12:13:52.577Z,78.4
2023-02-19T12:15:08.807Z,79.2
2023-02-19T12:16:25.050Z,78.8
2023-02-19T12:17:41.299Z,79.2
2023-02-19T12:18:57.537Z,77
2023-02-19T12:20:13.000Z,75.5
2023-02-19T12:21:29.044Z,74.2
2023-02-19T12:22:45.262Z,74.7
2023-02-19T12:24:01.511Z,73.8
2023-02-19T12:25:17.749Z,73.6
2023-02-19T12:26:33.996Z,72.5
2023-02-19T12:27:50.225Z,71.9
2023-02-19T12:29:06.490Z,72.7
2023-02-19T12:30:22.732Z,74
2023-02-19T12:31:38.960Z,74
2023-02-19T12:32:55.193Z,74.1
2023-02-19T12:34:11.451Z,75.6
2023-02-19T12:35:27.675Z,74
2023-02-19T12:36:43.920Z,73.3
2023-02-19T12:37:59.174Z,72.7
2023-02-19T12:39:15.399Z,72.3
2023-02-19T12:40:31.641Z,71.5
2023-02-19T12:41:47.890Z,70.9
2023-02-19T12:43:04.125Z,71.3
2023-02-19T12:44:20.372Z,70.9
2023-02-19T12:45:36.604Z,72.1
2023-02-19T12:46:52.853Z,71.1
2023-02-19T12:48:09.087Z,71.3
2023-02-19T12:49:25.342Z,70.7
2023-02-19T12:50:41.563Z,72.1
2023-02-19T12:51:57.827Z,72.2
2023-02-19T12:53:14.050Z,67.7
2023-02-19T12:54:29.329Z,67.3
2023-02-19T12:55:45.539Z,65.6
2023-02-19T12:57:01.806Z,63.7
2023-02-19T12:58:18.019Z,63.2
2023-02-19T12:59:34.272Z,60.4
2023-02-19T13:00:50.502Z,61.6
2023-02-19T13:02:06.761Z,61.4
2023-02-19T13:03:22.996Z,61.5
2023-02-19T13:04:39.235Z,62
2023-02-19T13:05:55.465Z,62.6
2023-02-19T13:07:11.713Z,64.4
2023-02-19T13:08:27.939Z,65.5
2023-02-19T13:09:44.206Z,66.1
2023-02-19T13:10:59.464Z,66.5
2023-02-19T13:12:15.709Z,66.7
2023-02-19T13:13:31.929Z,68
2023-02-19T13:14:48.187Z,69.2
2023-02-19T13:16:04.405Z,69.5
2023-02-19T13:17:20.655Z,67.8
2023-02-19T13:18:36.888Z,66.8
2023-02-19T13:19:53.138Z,64.5
2023-02-19T13:21:09.362Z,62.7
2023-02-19T13:22:25.605Z,59.6
2023-02-19T13:23:41.846Z,59.6
2023-02-19T13:24:58.084Z,59.9
2023-02-19T13:26:14.322Z,62.6
2023-02-19T13:27:29.590Z,64.2
2023-02-19T13:28:45.835Z,66.4
2023-02-19T13:30:02.074Z,66
2023-02-19T13:31:18.296Z,66.5
2023-02-19T13:32:34.551Z,66.3
2023-02-19T13:33:50.790Z,67.2
2023-02-19T13:35:07.021Z,66
2023-02-19T13:36:23.268Z,66.5
2023-02-19T13:37:39.514Z,67.3
2023-02-19T13:38:55.749Z,68
2023-02-19T13:40:11.973Z,67.9
2023-02-19T13:41:28.228Z,68.5
2023-02-19T13:42:44.468Z,68.3
2023-02-19T13:43:59.732Z,69.4
2023-02-19T13:45:15.973Z,67.4
2023-02-19T13:46:32.221Z,68
2023-02-19T13:47:48.459Z,67.3
2023-02-19T13:49:04.675Z,69.5
2023-02-19T13:50:20.909Z,68.6
2023-02-19T13:51:37.156Z,68.1
2023-02-19T13:52:53.395Z,69.6
2023-02-19T13:54:09.640Z,68
2023-02-19T13:55:25.869Z,67.1
2023-02-19T13:56:42.120Z,66.2
2023-02-19T13:57:58.353Z,67.3
2023-02-19T13:59:14.606Z,66.6
2023-02-19T14:00:29.864Z,67.5
2023-02-19T14:01:46.101Z,67.2
2023-02-19T14:03:02.344Z,66.5
2023-02-19T14:04:18.593Z,67.7
2023-02-19T14:05:34.829Z,66
2023-02-19T14:06:51.059Z,64.2
2023-02-19T14:08:07.320Z,65
2023-02-19T14:09:23.546Z,62.3
2023-02-19T14:10:39.774Z,60.8
2023-02-19T14:11:56.036Z,61.4
2023-02-19T14:13:12.265Z,62.7
2023-02-19T14:14:28.520Z,63.2
2023-02-19T14:15:44.762Z,64.2
2023-02-19T14:17:00.005Z,65.8
2023-02-19T14:18:16.234Z,65.6
2023-02-19T14:19:32.494Z,67
2023-02-19T14:20:48.717Z,67.4
2023-02-19T14:22:04.951Z,66.4
2023-02-19T14:23:21.203Z,64.5
2023-02-19T14:24:37.440Z,63.1
2023-02-19T14:25:53.683Z,62.7
2023-02-19T14:27:09.939Z,63.1
2023-02-19T14:28:26.178Z,64.2
2023-02-19T14:29:42.399Z,64.4
2023-02-19T14:30:58.652Z,65.3
2023-02-19T14:32:14.879Z,64.8
2023-02-19T14:33:30.136Z,65.9
2023-02-19T14:34:46.365Z,67
2023-02-19T14:36:02.628Z,67.2
2023-02-19T14:37:18.841Z,67.4
2023-02-19T14:39:51.342Z,69.2
2023-02-19T14:41:07.577Z,68.5
2023-02-19T14:42:23.816Z,68.4
2023-02-19T14:43:40.069Z,66.9
2023-02-19T14:44:56.303Z,68.3
2023-02-19T14:46:12.542Z,66.9
2023-02-19T14:47:28.779Z,68.1
2023-02-19T14:48:45.025Z,68
2023-02-19T14:50:00.282Z,68.3
2023-02-19T14:51:16.515Z,67.6
2023-02-19T14:52:32.749Z,67.9
2023-02-19T14:53:48.993Z,68.3
2023-02-19T14:55:05.218Z,68.7
2023-02-19T14:56:21.479Z,69.6
2023-02-19T14:57:36.736Z,69.5
2023-02-19T14:58:52.973Z,69.6
2023-02-19T15:00:09.214Z,70.1
2023-02-19T15:01:25.454Z,69.3
2023-02-19T15:02:41.686Z,67.7
2023-02-19T15:03:57.938Z,69
2023-02-19T15:05:14.163Z,69
2023-02-19T15:06:30.427Z,69.1
2023-02-19T15:07:46.651Z,69.1
2023-02-19T15:09:02.891Z,69.3
2023-02-19T15:10:19.125Z,68.1
2023-02-19T15:11:35.370Z,68.2
2023-02-19T15:12:51.612Z,69.4
2023-02-19T15:14:06.869Z,67.7
2023-02-19T15:15:23.109Z,68.7
2023-02-19T15:16:39.346Z,69.4
2023-02-19T15:17:55.582Z,70.1
2023-02-19T15:19:11.816Z,67.8
2023-02-19T15:20:28.064Z,69.1
2023-02-19T15:21:44.297Z,68.5
2023-02-19T15:23:00.533Z,68.3
2023-02-19T15:24:16.776Z,69.4
2023-02-19T15:25:33.016Z,69.6
2023-02-19T15:26:49.282Z,68.8
2023-02-19T15:28:05.505Z,70
2023-02-19T15:29:21.736Z,70.9
2023-02-19T15:30:36.997Z,70.1
2023-02-19T15:31:53.242Z,71.4
2023-02-19T15:33:09.472Z,71.6
2023-02-19T15:34:25.719Z,71.2
2023-02-19T15:35:41.952Z,72.3
2023-02-19T15:36:58.194Z,72.3
2023-02-19T15:38:14.435Z,71.8
2023-02-19T15:39:30.680Z,73.1
2023-02-19T15:40:46.935Z,74
2023-02-19T15:42:03.154Z,74.9
2023-02-19T15:43:19.402Z,74.3
2023-02-19T15:44:35.638Z,73.7
2023-02-19T15:45:51.880Z,74.8
2023-02-19T15:47:07.155Z,74.2
2023-02-19T15:48:23.377Z,74.4
2023-02-19T15:49:39.624Z,76.1
2023-02-19T15:50:55.850Z,75.5
2023-02-19T15:52:12.108Z,74.6
2023-02-19T15:53:28.339Z,74.6
2023-02-19T15:54:44.595Z,74.8
2023-02-19T15:56:00.817Z,75.3
2023-02-19T15:57:17.061Z,75.3
2023-02-19T15:58:33.303Z,75.4
2023-02-19T15:59:49.530Z,75.6
2023-02-19T16:01:05.779Z,75.6
2023-02-19T16:02:22.022Z,75.9
2023-02-19T16:03:37.277Z,76
2023-02-19T16:04:53.517Z,75.7
2023-02-19T16:06:09.759Z,77.2
2023-02-19T16:07:26.000Z,76
2023-02-19T16:08:42.228Z,76.6
2023-02-19T16:09:58.480Z,76
2023-02-19T16:11:14.723Z,76.6
2023-02-19T16:12:30.967Z,76.5
2023-02-19T16:13:47.202Z,74.9
2023-02-19T16:15:03.438Z,75.4
2023-02-19T16:16:19.698Z,75.8
2023-02-19T16:17:35.929Z,75.6
2023-02-19T16:18:52.170Z,74.7
2023-02-19T16:20:07.421Z,73.8
2023-02-19T16:21:23.655Z,75.1
2023-02-19T16:22:39.884Z,74.2
2023-02-19T16:23:56.132Z,74.7
2023-02-19T16:25:12.377Z,74.4
2023-02-19T16:26:28.625Z,74.4
2023-02-19T16:27:44.857Z,74.3
2023-02-19T16:29:01.101Z,74.3
2023-02-19T16:30:17.344Z,74.7
2023-02-19T16:31:33.577Z,74.4
2023-02-19T16:32:49.835Z,75.2
2023-02-19T16:34:06.060Z,75.8
2023-02-19T16:35:22.303Z,75
2023-02-19T16:36:37.549Z,76.4
2023-02-19T16:37:53.790Z,75.7
2023-02-19T16:39:10.032Z,75.8
2023-02-19T16:40:26.286Z,75.6
2023-02-19T16:41:42.523Z,75.5
2023-02-19T16:42:58.756Z,76
2023-02-19T16:44:14.996Z,75.8
2023-02-19T16:45:31.230Z,76
2023-02-19T16:46:47.468Z,76.1
2023-02-19T16:48:03.723Z,76.1
2023-02-19T16:49:19.972Z,76.7
2023-02-19T16:50:36.189Z,76.6
2023-02-19T16:51:52.440Z,77
2023-02-19T16:53:07.683Z,76.4
2023-02-19T16:54:23.944Z,76.3
2023-02-19T16:55:40.193Z,77.4
2023-02-19T16:56:56.426Z,77.4
2023-02-19T16:58:12.647Z,77.2
2023-02-19T16:59:28.904Z,77.5
2023-02-19T17:00:45.139Z,77.8
2023-02-19T17:02:01.391Z,77.6
2023-02-19T17:03:17.690Z,78
2023-02-19T17:04:33.961Z,78.2
2023-02-19T17:05:50.277Z,78.2
2023-02-19T17:07:06.548Z,78.5
2023-02-19T17:08:22.865Z,78.9
2023-02-19T17:09:38.158Z,78.7
2023-02-19T17:10:54.451Z,78.6
2023-02-19T17:12:10.754Z,79
2023-02-19T17:13:27.000Z,79.4
2023-02-19T17:14:43.344Z,79.5
2023-02-19T17:15:59.625Z,79.4